WFLO2: Webbers Falls Lock & Dam & Reservoir (L&D 16)

Data processed at Mon Aug 10 2020 23:31


All information presented herein is the property of the government of the United States of America and may be revised or deleted at any time without prior notice.
Dissemination of this information without the expressed written consent of the Public Affairs Office, Tulsa District U.S. Army Corps of Engineers is strictly prohibited.
These data are gathered electronically and, as presented, have not undergone any form of quality control. These data are not guaranteed to be valid or correct.
Go to home page.
Go to station list.
Go to home page.

Upstream stations:

Downstream station:
Previous Day
Next Day
Current Day
    
SHEF ID:       WFLO2     Webbers Falls LD16
STATION TYPE:  NAVIGATION LOCK
Navigation Pool:  Bottom =   487.00, Top =   490.00

               PRECIP ELEVATION   STORAGE   TW-ELEV    INFLOW   RELEASE  AIR-TEMP  WIND-DIRWIND-SPEED REL-HUMID SOLAR-RAD   VOLTAGE  BAT-LOAD
                   in        ft     ac-ft        ft       cfs       cfs         F       deg       mph         %      W/m2      volt      volt
              Ccp-Rev   Ccp-Rev   Ccp-Rev   Ccp-Rev  Rev-Regi  Rev-Regi   Ccp-Rev   Ccp-Rev   Ccp-Rev   Ccp-Rev   Ccp-Rev   Ccp-Rev   Ccp-Rev
(US/Central)
08/10 00:00      0.00    490.20    172526    460.62     24529     29150     77.77    124.70      1.20     78.70      0.00     13.22     12.97
08/10 01:00      0.00    490.23    172890    460.35     26221     23700     76.33    127.90      0.70     85.63      0.00     13.22     12.97
08/10 02:00      0.00    490.24    173011    460.35     25679     19800     75.11    146.50      2.20     91.65      0.00     13.22     12.97
08/10 03:00      0.00    490.30    173739    460.40     24983     19800     74.37    139.50      2.20     94.67      0.00     13.22     12.97
08/10 04:00      0.00    490.31    173860    460.44     24417     19800     74.12    146.00      3.10     94.70      0.00     13.22     12.97
08/10 05:00      0.00    490.35    174345    460.42     25004     19800     74.61    148.30      2.80     91.29      0.00     13.22     12.97
08/10 06:00      0.00    490.39    174831    460.39     24123     19400     74.70    155.40      4.10     92.28      0.00     13.22     12.97
08/10 07:00      0.00    490.42    175195    460.36     25297     19800     74.64    157.70      4.00     90.61      0.40     13.22     12.97
08/10 08:00      0.00    490.45    175558    460.37     24924     19800     74.91    163.70      2.70     91.06     87.30     13.22     12.97
08/10 09:00      0.00    490.50    176165    460.35     25084     19800     77.97    158.10      5.50     83.20    279.80     13.22     12.97
08/10 10:00      0.00    490.53    176529    460.34     25671     19400     81.10    167.90      5.00     73.98    474.40     13.22     12.81
08/10 11:00      0.00    490.57    177014    460.29     24770     20200     84.65    183.30      3.80     62.08    651.70     13.22     12.97
08/10 12:00      0.00    490.62    177621    460.28     23291     19800     86.94    184.70      4.30     57.30    788.40     13.22     12.97
08/10 13:00      0.00    490.59    177257    460.44     23439     24100     89.37    204.60      4.40     51.46    863.90     13.22     12.97
08/10 14:00      0.00    490.53    176529    460.66     21960     28550     90.68    227.30      4.70     47.50    841.50     13.22     12.97
08/10 15:00      0.00    490.50    176165    460.66     21148     28950     91.72    234.40      4.70     45.35    837.60     13.22     12.97
08/10 16:00      0.00    490.43    175316    460.67     21825     28950     92.70    240.00      3.90     42.75    782.20     13.22     12.97
08/10 17:00      0.00    490.39    174831    460.69     22198     28950     94.10    224.90      2.30     42.97    637.50     13.22     12.97
08/10 18:00      0.00    490.35    174345    460.67     21204     28950     95.07    216.90      1.70     42.96    444.60     13.22     12.97
08/10 19:00      0.00    490.30    173739    460.71     21678     28950     94.14    240.90      1.10     47.30    235.00     13.22     12.97
08/10 20:00      0.00    490.23    172890    460.75     20977     29850     91.15    322.30      0.70     59.26     60.10     13.22     12.97
08/10 21:00      0.00    490.17    172162    460.78     20864     29850     83.32    110.50      0.60     77.06      0.00     13.22     12.97
08/10 22:00      0.00    490.13    171677    460.66      ----      ----     78.67    115.10      0.60     83.32      0.00     13.22     12.97
08/10 23:00      ----      ----      ----      ----      ----      ----      ----      ----      ----      ----      ----      ----      ----